Time;durP1;ratioP1;P1;durP2;ratioP2;P2;SDS_P1;SDS_P2;PMS_P1;PMS_P2;Temp;Humidity;BMP_temperature;BMP_pressure;BME280_temperature;BME280_humidity;BME280_pressure;Samples;Min_cycle;Max_cycle;Signal;HPM_P1;HPM_P2
2022/03/25 00:00:05;;;;;;;98.47;46.33;;;5.10;99.90;;;;;;4919813;29;20052;-85
2022/03/25 00:02:30;;;;;;;100.83;46.20;;;5.10;99.90;;;;;;4901061;29;20875;-84
2022/03/25 00:04:56;;;;;;;106.27;46.03;;;5.10;99.90;;;;;;4918359;29;20047;-84
2022/03/25 00:07:22;;;;;;;99.87;46.73;;;5.00;99.90;;;;;;4918704;29;20040;-84
2022/03/25 00:09:47;;;;;;;102.87;46.53;;;5.00;99.90;;;;;;4902175;29;20044;-85
2022/03/25 00:12:13;;;;;;;100.23;47.30;;;5.10;99.90;;;;;;4918066;29;20437;-85
2022/03/25 00:14:38;;;;;;;96.43;47.37;;;5.00;99.90;;;;;;4902180;29;20044;-85
2022/03/25 00:17:04;;;;;;;104.67;47.63;;;5.00;99.90;;;;;;4919491;29;20392;-85
2022/03/25 00:19:30;;;;;;;103.87;46.60;;;5.00;99.90;;;;;;4900903;29;20661;-85
2022/03/25 00:21:55;;;;;;;103.63;47.27;;;5.00;99.90;;;;;;4901708;29;20083;-85
2022/03/25 00:24:23;;;;;;;106.10;48.70;;;5.00;99.90;;;;;;4901720;29;20067;-85
2022/03/25 00:26:48;;;;;;;105.93;48.97;;;5.00;99.90;;;;;;4918190;29;20050;-85
2022/03/25 00:29:15;;;;;;;101.20;47.13;;;4.90;99.90;;;;;;4918636;29;20056;-85
2022/03/25 00:31:40;;;;;;;107.80;48.80;;;4.90;99.90;;;;;;4901400;29;20058;-84
2022/03/25 00:34:06;;;;;;;105.53;49.07;;;4.80;99.90;;;;;;4917948;29;20043;-85
2022/03/25 00:36:32;;;;;;;102.77;47.13;;;4.80;99.90;;;;;;4918203;29;20060;-84
2022/03/25 00:38:57;;;;;;;102.50;47.40;;;4.70;99.90;;;;;;4918090;29;20119;-84
2022/03/25 00:41:23;;;;;;;107.80;47.50;;;4.70;99.90;;;;;;4918130;29;20083;-84
2022/03/25 00:43:49;;;;;;;105.63;49.07;;;4.70;99.90;;;;;;4901689;29;20067;-84
2022/03/25 00:46:15;;;;;;;104.20;47.00;;;4.70;99.90;;;;;;4917531;29;20091;-84
2022/03/25 00:48:42;;;;;;;103.00;47.87;;;4.60;99.90;;;;;;4901226;29;20554;-85
2022/03/25 00:51:08;;;;;;;106.60;47.13;;;4.60;99.90;;;;;;4901351;29;20608;-83
2022/03/25 00:53:34;;;;;;;104.50;47.73;;;4.50;99.90;;;;;;4900078;29;20496;-83
2022/03/25 00:56:03;;;;;;;111.73;50.40;;;4.50;99.90;;;;;;4918069;29;20055;-83
2022/03/25 00:58:29;;;;;;;103.73;46.17;;;4.50;99.90;;;;;;4900926;29;20047;-85
2022/03/25 01:00:56;;;;;;;107.90;49.50;;;4.60;99.90;;;;;;4900242;29;20071;-86
2022/03/25 01:03:21;;;;;;;107.93;47.63;;;4.50;99.90;;;;;;4900723;29;20131;-85
2022/03/25 01:05:49;;;;;;;107.77;47.73;;;4.40;99.90;;;;;;4901067;29;20135;-86
2022/03/25 01:08:15;;;;;;;106.10;46.70;;;4.40;99.90;;;;;;4917079;29;20055;-86
2022/03/25 01:10:41;;;;;;;108.37;48.27;;;4.40;99.90;;;;;;4900673;29;20474;-86
2022/03/25 01:13:07;;;;;;;108.93;47.80;;;4.40;99.90;;;;;;4900907;29;20157;-86
2022/03/25 01:15:32;;;;;;;108.17;47.07;;;4.40;99.90;;;;;;4916825;29;20063;-86
2022/03/25 01:17:58;;;;;;;105.83;48.53;;;4.40;99.90;;;;;;4918221;29;20070;-86
2022/03/25 01:20:24;;;;;;;102.67;46.40;;;4.40;99.90;;;;;;4917608;29;20175;-84
2022/03/25 01:22:50;;;;;;;106.10;47.50;;;4.30;99.90;;;;;;4899916;29;20048;-83
2022/03/25 01:25:16;;;;;;;103.30;47.17;;;4.30;99.90;;;;;;4900208;29;20052;-85
2022/03/25 01:27:43;;;;;;;100.83;44.53;;;4.30;99.90;;;;;;4900916;29;20084;-86
2022/03/25 01:30:10;;;;;;;112.43;48.87;;;4.30;99.90;;;;;;4900082;29;20527;-86
2022/03/25 01:32:37;;;;;;;107.33;49.10;;;4.30;99.90;;;;;;4917514;29;20497;-86
2022/03/25 01:35:06;;;;;;;109.03;47.33;;;4.20;99.90;;;;;;4917023;29;20119;-86
2022/03/25 01:37:32;;;;;;;103.60;46.93;;;4.20;99.90;;;;;;4900332;29;20086;-85
2022/03/25 01:39:57;;;;;;;105.97;45.67;;;4.20;99.90;;;;;;4917568;29;20563;-86
2022/03/25 01:42:34;;;;;;;101.93;45.30;;;4.20;99.90;;;;;;4916571;29;20131;-86
2022/03/25 01:45:01;;;;;;;107.40;47.60;;;4.10;99.90;;;;;;4900580;29;20051;-86
2022/03/25 01:47:28;;;;;;;106.47;46.00;;;4.10;99.90;;;;;;4899737;29;20136;-86
2022/03/25 01:49:57;;;;;;;99.87;45.27;;;4.00;99.90;;;;;;4900524;29;20056;-86
2022/03/25 01:52:23;;;;;;;93.73;42.63;;;4.00;99.90;;;;;;4899691;29;20040;-85
2022/03/25 01:54:49;;;;;;;83.83;42.33;;;4.00;99.90;;;;;;4917306;29;20147;-85
2022/03/25 01:57:14;;;;;;;90.57;42.50;;;3.90;99.90;;;;;;4916157;29;20535;-83
2022/03/25 01:59:40;;;;;;;82.80;39.00;;;3.80;99.90;;;;;;4917153;29;20096;-85
2022/03/25 02:02:07;;;;;;;87.23;40.27;;;3.80;99.90;;;;;;4916792;29;20048;-86
2022/03/25 02:04:33;;;;;;;83.90;40.20;;;3.70;99.90;;;;;;4916026;29;20481;-85
2022/03/25 02:06:59;;;;;;;82.30;39.60;;;3.60;99.90;;;;;;4916806;29;20032;-84
2022/03/25 02:09:28;;;;;;;90.57;40.03;;;3.60;99.90;;;;;;4916834;29;20485;-84
2022/03/25 02:11:55;;;;;;;84.83;38.13;;;3.50;99.90;;;;;;4916447;29;20096;-84
2022/03/25 02:14:22;;;;;;;83.63;40.37;;;3.40;99.90;;;;;;4899724;29;20051;-84
2022/03/25 02:16:49;;;;;;;91.03;40.97;;;3.30;99.90;;;;;;4916679;29;20496;-84
2022/03/25 02:19:19;;;;;;;83.17;38.87;;;3.30;99.90;;;;;;4915961;29;20044;-84
2022/03/25 02:21:47;;;;;;;87.03;40.67;;;3.30;99.90;;;;;;4900075;29;20059;-84
2022/03/25 02:24:14;;;;;;;90.00;40.50;;;3.20;99.90;;;;;;4915850;29;20076;-84
2022/03/25 02:26:40;;;;;;;93.37;40.30;;;3.20;99.90;;;;;;4899852;29;20556;-84
2022/03/25 02:29:07;;;;;;;88.70;39.90;;;3.20;99.90;;;;;;4899721;29;20047;-85
2022/03/25 02:31:33;;;;;;;101.13;42.33;;;3.10;99.90;;;;;;4915616;29;20048;-84
2022/03/25 02:34:03;;;;;;;96.97;43.53;;;3.10;99.90;;;;;;4916665;29;20051;-84
2022/03/25 02:36:29;;;;;;;98.47;41.53;;;3.00;99.90;;;;;;4899037;29;20047;-85
2022/03/25 02:38:54;;;;;;;90.43;38.77;;;3.00;99.90;;;;;;4915721;29;20384;-84
2022/03/25 02:41:20;;;;;;;86.20;39.27;;;3.00;99.90;;;;;;4899458;29;20041;-85
2022/03/25 02:43:46;;;;;;;87.00;40.83;;;3.00;99.90;;;;;;4916415;29;20058;-85
2022/03/25 02:46:11;;;;;;;91.37;39.67;;;2.90;99.90;;;;;;4898589;29;20048;-85
2022/03/25 02:48:37;;;;;;;94.10;41.13;;;2.90;99.90;;;;;;4916287;29;20135;-84
2022/03/25 02:51:02;;;;;;;97.63;40.73;;;2.90;99.90;;;;;;4916619;29;20091;-84
2022/03/25 02:53:28;;;;;;;92.60;40.77;;;2.80;99.90;;;;;;4898754;29;20040;-84
2022/03/25 02:55:55;;;;;;;93.77;41.70;;;2.80;99.90;;;;;;4916460;29;20072;-84
2022/03/25 02:58:20;;;;;;;88.87;40.73;;;2.80;99.90;;;;;;4916216;29;20040;-85
2022/03/25 03:00:46;;;;;;;92.17;40.53;;;2.70;99.90;;;;;;4915789;29;20409;-85
2022/03/25 03:03:12;;;;;;;89.80;40.53;;;2.70;99.90;;;;;;4914159;29;20044;-85
2022/03/25 03:05:38;;;;;;;90.30;40.20;;;2.70;99.90;;;;;;4915733;29;20095;-85
2022/03/25 03:08:03;;;;;;;85.50;39.33;;;2.60;99.90;;;;;;4898572;29;20044;-84
2022/03/25 03:10:29;;;;;;;90.60;39.47;;;2.60;99.90;;;;;;4899312;29;20135;-84
2022/03/25 03:12:55;;;;;;;88.50;40.10;;;2.50;99.90;;;;;;4916097;29;20536;-84
2022/03/25 03:15:22;;;;;;;85.30;39.80;;;2.50;99.90;;;;;;4915131;29;20051;-84
2022/03/25 03:17:49;;;;;;;90.53;39.63;;;2.40;99.90;;;;;;4916276;29;20063;-85
2022/03/25 03:20:16;;;;;;;94.10;41.27;;;2.40;99.90;;;;;;4915066;29;20051;-84
2022/03/25 03:22:43;;;;;;;90.93;40.07;;;2.40;99.90;;;;;;4915598;29;20134;-85
2022/03/25 03:25:12;;;;;;;83.20;38.23;;;2.40;99.90;;;;;;4916532;29;20052;-84
2022/03/25 03:27:38;;;;;;;93.87;39.23;;;2.40;99.90;;;;;;4899116;29;20522;-85
2022/03/25 03:30:09;;;;;;;94.70;40.03;;;2.40;99.90;;;;;;4916125;29;20052;-84
2022/03/25 03:32:36;;;;;;;88.00;38.63;;;2.30;99.90;;;;;;4916259;29;20119;-85
2022/03/25 03:35:03;;;;;;;94.90;38.20;;;2.30;99.90;;;;;;4898798;29;20083;-84
2022/03/25 03:37:28;;;;;;;93.80;39.43;;;2.30;99.90;;;;;;4919511;29;20458;-84
2022/03/25 03:39:54;;;;;;;88.63;39.83;;;2.30;99.90;;;;;;4919682;29;20079;-86
2022/03/25 03:42:20;;;;;;;93.43;40.87;;;2.20;99.90;;;;;;4901448;29;20044;-84
2022/03/25 03:44:45;;;;;;;89.07;37.73;;;2.20;99.90;;;;;;4919283;29;20488;-84
2022/03/25 03:47:12;;;;;;;84.17;38.13;;;2.20;99.90;;;;;;4901952;29;20056;-84
2022/03/25 03:49:38;;;;;;;85.73;38.67;;;2.10;99.90;;;;;;4901615;29;20099;-84
2022/03/25 03:52:04;;;;;;;90.97;37.80;;;2.10;99.90;;;;;;4919430;29;20046;-84
2022/03/25 03:54:32;;;;;;;85.80;36.40;;;2.00;99.90;;;;;;4902066;29;20059;-84
2022/03/25 03:56:58;;;;;;;83.27;36.60;;;2.00;99.90;;;;;;4901719;29;20131;-84
2022/03/25 03:59:24;;;;;;;84.43;37.20;;;1.90;99.90;;;;;;4901786;29;20119;-84
2022/03/25 04:01:49;;;;;;;86.20;38.07;;;1.90;99.90;;;;;;4901960;29;20135;-84
2022/03/25 04:04:16;;;;;;;82.83;37.90;;;1.90;99.90;;;;;;4918462;29;20449;-84
2022/03/25 04:06:41;;;;;;;102.50;38.97;;;1.90;99.90;;;;;;4901880;29;20052;-84
2022/03/25 04:09:07;;;;;;;91.13;38.47;;;1.80;99.90;;;;;;4901923;29;20457;-84
2022/03/25 04:11:32;;;;;;;93.30;38.60;;;1.90;99.90;;;;;;4900934;29;20048;-84
2022/03/25 04:13:58;;;;;;;92.87;38.40;;;1.80;99.90;;;;;;4918764;29;20066;-85
2022/03/25 04:16:23;;;;;;;100.23;38.97;;;1.80;99.90;;;;;;4918889;29;20076;-84
2022/03/25 04:18:49;;;;;;;94.67;37.87;;;1.70;99.90;;;;;;4901204;29;20084;-84
2022/03/25 04:21:15;;;;;;;86.33;36.77;;;1.70;99.90;;;;;;4918631;29;20056;-84
2022/03/25 04:23:41;;;;;;;85.43;37.03;;;1.70;99.90;;;;;;4901799;29;20135;-84
2022/03/25 04:26:06;;;;;;;83.83;36.83;;;1.60;99.90;;;;;;4901145;29;20127;-84
2022/03/25 04:28:32;;;;;;;97.40;39.13;;;1.70;99.90;;;;;;4901377;29;20452;-84
2022/03/25 04:30:58;;;;;;;82.73;36.43;;;1.60;99.90;;;;;;4901008;29;20044;-84
2022/03/25 04:33:24;;;;;;;89.00;36.27;;;1.50;99.90;;;;;;4918453;29;20119;-84
2022/03/25 04:35:49;;;;;;;81.87;34.87;;;1.60;99.90;;;;;;4918325;29;20055;-84
2022/03/25 04:38:15;;;;;;;93.17;36.57;;;1.60;99.90;;;;;;4917681;29;20140;-84
2022/03/25 04:40:42;;;;;;;80.77;36.87;;;1.50;99.90;;;;;;4918806;29;20127;-84
2022/03/25 04:43:08;;;;;;;96.13;33.97;;;1.50;99.90;;;;;;4901295;29;20122;-84
2022/03/25 04:45:34;;;;;;;81.17;36.00;;;1.50;99.90;;;;;;4917356;29;20056;-84
2022/03/25 04:48:00;;;;;;;85.80;36.00;;;1.40;99.90;;;;;;4917502;29;20160;-85
2022/03/25 04:50:27;;;;;;;79.00;36.03;;;1.40;99.90;;;;;;4918014;29;20138;-85
2022/03/25 04:52:53;;;;;;;85.57;37.33;;;1.50;99.90;;;;;;4900437;29;20044;-85
2022/03/25 04:55:19;;;;;;;109.03;39.00;;;1.40;99.90;;;;;;4900765;29;20408;-85
2022/03/25 04:57:45;;;;;;;82.23;36.10;;;1.40;99.90;;;;;;4900918;29;20392;-85
2022/03/25 05:00:12;;;;;;;121.37;37.97;;;1.40;99.90;;;;;;4916377;29;20044;-84
2022/03/25 05:02:38;;;;;;;97.73;37.00;;;1.40;99.90;;;;;;4897941;29;20056;-84
2022/03/25 05:05:04;;;;;;;80.00;35.17;;;1.40;99.90;;;;;;4918854;29;20044;-84
2022/03/25 05:07:29;;;;;;;77.20;35.83;;;1.30;99.90;;;;;;4935226;29;20106;-84
2022/03/25 05:09:59;;;;;;;94.80;34.70;;;1.30;99.90;;;;;;4919866;29;20048;-84
2022/03/25 05:12:26;;;;;;;81.57;35.07;;;1.30;99.90;;;;;;4919428;29;20122;-85
2022/03/25 05:14:52;;;;;;;88.53;35.50;;;1.30;99.90;;;;;;4918897;29;20043;-84
2022/03/25 05:17:17;;;;;;;80.07;34.27;;;1.30;99.90;;;;;;4919812;29;20044;-84
2022/03/25 05:19:43;;;;;;;118.70;36.00;;;1.30;99.90;;;;;;4919523;29;20071;-84
2022/03/25 05:22:09;;;;;;;116.93;33.70;;;1.30;99.90;;;;;;4918894;29;20050;-85
2022/03/25 05:24:35;;;;;;;102.50;34.90;;;1.30;99.90;;;;;;4936612;29;20123;-84
2022/03/25 05:27:01;;;;;;;104.87;35.37;;;1.30;99.90;;;;;;4936285;29;20562;-85
2022/03/25 05:29:27;;;;;;;118.60;36.70;;;1.30;99.90;;;;;;4935888;29;20055;-84
2022/03/25 05:31:53;;;;;;;94.17;35.40;;;1.30;99.90;;;;;;4936883;29;20396;-84
2022/03/25 05:34:19;;;;;;;85.30;34.60;;;1.30;99.90;;;;;;4918211;29;20127;-84
2022/03/25 05:36:45;;;;;;;116.90;34.73;;;1.20;99.90;;;;;;4936089;29;20223;-85
2022/03/25 05:39:11;;;;;;;80.93;33.20;;;1.20;99.90;;;;;;4919247;29;20079;-85
2022/03/25 05:41:38;;;;;;;81.03;33.43;;;1.20;99.90;;;;;;4935565;29;20052;-84
2022/03/25 05:44:04;;;;;;;82.97;32.33;;;1.20;99.90;;;;;;4936734;29;20392;-84
2022/03/25 05:46:29;;;;;;;106.30;34.83;;;1.20;99.90;;;;;;4918530;29;20039;-84
2022/03/25 05:48:55;;;;;;;75.83;33.33;;;1.20;99.90;;;;;;4935388;29;20055;-84
2022/03/25 05:51:21;;;;;;;104.57;34.83;;;1.20;99.90;;;;;;4918566;29;20492;-85
2022/03/25 05:53:47;;;;;;;129.77;37.20;;;1.20;99.90;;;;;;4936084;29;20047;-85
2022/03/25 05:56:13;;;;;;;109.53;35.70;;;1.40;99.90;;;;;;4935202;29;20051;-85
2022/03/25 05:58:39;;;;;;;109.33;34.93;;;1.40;99.90;;;;;;4935423;29;20099;-85
2022/03/25 06:01:07;;;;;;;98.60;36.00;;;1.30;99.90;;;;;;4919096;29;20052;-85
2022/03/25 06:03:33;;;;;;;99.20;34.87;;;1.40;99.90;;;;;;4917641;29;20048;-85
2022/03/25 06:06:05;;;;;;;92.60;35.07;;;1.40;99.90;;;;;;4935447;29;20050;-85
2022/03/25 06:08:30;;;;;;;99.97;34.87;;;1.40;99.90;;;;;;4935614;29;20438;-85
2022/03/25 06:10:57;;;;;;;114.07;37.10;;;1.40;99.90;;;;;;4934614;29;20043;-84
2022/03/25 06:13:23;;;;;;;96.60;35.23;;;1.40;99.90;;;;;;4918161;29;20139;-84
2022/03/25 06:15:50;;;;;;;83.00;35.47;;;1.50;99.90;;;;;;4935632;29;20412;-84
2022/03/25 06:18:16;;;;;;;74.00;32.40;;;1.50;99.90;;;;;;4934924;29;20167;-85
2022/03/25 06:20:42;;;;;;;76.93;34.00;;;1.50;99.90;;;;;;4918603;29;20125;-85
2022/03/25 06:23:08;;;;;;;79.93;35.53;;;1.50;99.90;;;;;;4918227;29;20047;-84
2022/03/25 06:25:33;;;;;;;86.97;36.03;;;1.50;99.90;;;;;;4917765;29;20044;-85
2022/03/25 06:28:02;;;;;;;77.73;35.70;;;1.50;99.90;;;;;;4935455;29;20062;-84
2022/03/25 06:30:34;;;;;;;77.03;35.07;;;1.70;99.90;;;;;;4917606;29;20070;-84
2022/03/25 06:33:01;;;;;;;87.83;36.53;;;1.60;99.90;;;;;;4936061;29;20043;-85
2022/03/25 06:35:27;;;;;;;86.77;36.27;;;1.70;99.90;;;;;;4935355;29;20094;-84
2022/03/25 06:37:53;;;;;;;80.53;36.00;;;1.70;99.90;;;;;;4917627;29;20133;-85
2022/03/25 06:40:20;;;;;;;87.07;37.37;;;1.80;99.90;;;;;;4918052;29;20138;-85
2022/03/25 06:42:46;;;;;;;80.50;36.13;;;1.80;99.90;;;;;;4935134;29;20518;-85
2022/03/25 06:45:14;;;;;;;86.33;37.13;;;1.90;99.90;;;;;;4917392;29;20075;-85
2022/03/25 06:47:40;;;;;;;82.13;36.27;;;2.00;99.90;;;;;;4935321;29;20059;-85
2022/03/25 06:50:08;;;;;;;82.57;36.90;;;2.00;99.90;;;;;;4918284;29;20171;-85
2022/03/25 06:52:37;;;;;;;92.30;37.57;;;2.10;99.90;;;;;;4917311;29;20043;-84
2022/03/25 06:55:03;;;;;;;92.20;37.80;;;2.20;99.90;;;;;;4918796;29;20381;-84
2022/03/25 06:57:29;;;;;;;93.13;40.47;;;2.40;99.90;;;;;;4917977;29;20164;-85
2022/03/25 06:59:55;;;;;;;86.47;38.87;;;2.40;99.90;;;;;;4934917;29;20040;-84
2022/03/25 07:02:21;;;;;;;91.60;38.37;;;2.50;99.90;;;;;;4917934;29;20047;-83
2022/03/25 07:04:47;;;;;;;96.57;41.33;;;2.60;99.90;;;;;;4935091;29;20035;-84
2022/03/25 07:07:13;;;;;;;75.77;32.70;;;2.70;99.90;;;;;;4934129;29;20122;-85
2022/03/25 07:09:39;;;;;;;68.53;32.17;;;2.90;99.90;;;;;;4935205;29;20487;-85
2022/03/25 07:12:43;;;;;;;74.07;35.07;;;2.90;99.90;;;;;;4930388;23;20110;-95
2022/03/25 07:15:13;;;;;;;71.30;32.33;;;3.00;99.90;;;;;;4944272;29;20051;-94
2022/03/25 07:26:34;;;;;;;74.40;34.97;;;3.30;99.90;;;;;;5282750;23;20059;-89
2022/03/25 07:29:11;;;;;;;74.13;35.13;;;3.70;99.90;;;;;;4938604;29;20123;-88
2022/03/25 07:31:38;;;;;;;75.50;36.07;;;3.00;99.90;;;;;;4922194;29;20127;-87
2022/03/25 07:35:03;;;;;;;75.87;36.20;;;4.40;99.90;;;;;;4948149;23;20056;-94
2022/03/25 07:40:54;;;;;;;78.10;37.53;;;3.80;99.90;;;;;;5188062;23;20051;-92
2022/03/25 07:43:55;;;;;;;79.53;37.63;;;4.10;99.90;;;;;;4929081;29;20058;-92
2022/03/25 09:03:33;;;;;;;59.00;33.03;;;7.90;99.90;;;;;;5432791;23;20488;-90
2022/03/25 09:58:18;;;;;;;;;;;;;;;;;;;;;
2022/03/25 10:38:06;;;;;;;46.65;30.17;;;13.60;99.90;;;;;;5796564;23;20077;-93
2022/03/25 10:51:08;;;;;;;44.28;30.55;;;14.30;99.90;;;;;;4924233;23;20063;-92
2022/03/25 10:54:02;;;;;;;42.53;29.67;;;14.50;99.90;;;;;;4905233;29;20054;-90
2022/03/25 10:56:30;;;;;;;44.58;31.95;;;14.60;99.90;;;;;;4905063;29;20055;-91
2022/03/25 10:59:34;;;;;;;44.25;29.58;;;13.70;99.90;;;;;;4897788;29;20056;-91
2022/03/25 11:02:11;;;;;;;44.10;29.30;;;13.10;99.90;;;;;;4900096;29;20503;-91
2022/03/25 11:04:57;;;;;;;44.28;29.40;;;15.40;99.90;;;;;;4899534;29;20040;-87
2022/03/25 11:07:37;;;;;;;42.92;28.38;;;15.50;99.90;;;;;;4915295;29;20393;-88
2022/03/25 11:10:13;;;;;;;42.70;28.80;;;15.10;99.90;;;;;;4899089;29;20048;-88
2022/03/25 11:12:44;;;;;;;42.67;28.77;;;15.00;99.90;;;;;;4898044;29;20048;-88
2022/03/25 11:15:33;;;;;;;43.53;29.63;;;16.10;99.90;;;;;;4915488;29;20079;-88
2022/03/25 11:18:06;;;;;;;45.75;28.80;;;15.50;99.90;;;;;;4897338;29;20051;-88
2022/03/25 11:20:39;;;;;;;44.80;27.85;;;15.70;99.90;;;;;;4898030;29;20408;-88
2022/03/25 11:23:26;;;;;;;44.00;27.80;;;15.80;99.90;;;;;;4916148;29;20048;-87
2022/03/25 11:25:56;;;;;;;45.60;29.00;;;16.20;99.90;;;;;;4915273;29;20048;-87
2022/03/25 11:29:22;;;;;;;39.03;26.90;;;16.20;99.90;;;;;;4898767;29;20048;-87
2022/03/25 11:32:13;;;;;;;41.53;26.77;;;15.50;99.90;;;;;;4915428;29;20063;-88
2022/03/25 11:35:14;;;;;;;41.03;27.17;;;16.10;99.90;;;;;;4898288;29;20085;-87
2022/03/25 11:45:35;;;;;;;;;;;;;;;;;;;;;
2022/03/25 11:48:40;;;;;;;37.50;25.60;;;17.10;99.90;;;;;;4914863;29;20043;-88
2022/03/25 11:53:32;;;;;;;39.97;27.15;;;17.40;99.90;;;;;;4980226;23;20130;-91
2022/03/25 11:59:24;;;;;;;38.30;25.30;;;17.50;99.90;;;;;;5526369;23;20848;31
2022/03/25 12:02:30;;;;;;;38.72;25.90;;;17.60;99.90;;;;;;4930776;29;20074;-91
2022/03/25 12:05:43;;;;;;;40.42;26.38;;;18.00;98.00;;;;;;4924883;29;20043;-92
2022/03/25 12:10:49;;;;;;;35.70;24.85;;;18.20;99.90;;;;;;5452525;23;20542;-91
2022/03/25 12:22:47;;;;;;;38.40;23.05;;;18.10;95.20;;;;;;4944095;23;20129;-94
2022/03/25 12:29:19;;;;;;;34.90;23.08;;;18.20;95.90;;;;;;5280437;23;20516;-93
2022/03/25 12:36:11;;;;;;;35.17;21.95;;;18.50;95.70;;;;;;4916199;29;20105;-93
2022/03/25 12:46:10;;;;;;;34.30;21.52;;;18.70;94.10;;;;;;4951818;23;20469;-93
2022/03/25 12:48:40;;;;;;;33.72;22.27;;;18.70;91.90;;;;;;4908279;29;20480;-93
2022/03/25 12:51:27;;;;;;;34.55;21.77;;;19.30;94.00;;;;;;4932609;29;20059;-94
2022/03/25 12:53:56;;;;;;;34.10;22.55;;;19.20;93.30;;;;;;4939363;29;20099;-93
2022/03/25 12:56:26;;;;;;;34.03;22.55;;;18.80;93.50;;;;;;4935497;23;20485;-93
2022/03/25 13:02:47;;;;;;;26.52;18.95;;;19.10;92.40;;;;;;4917183;29;20526;-92
2022/03/25 13:05:15;;;;;;;30.38;20.02;;;19.00;91.70;;;;;;4917261;29;20505;-93
2022/03/25 13:07:49;;;;;;;30.52;20.02;;;19.00;92.10;;;;;;4890873;29;20051;-93
2022/03/25 13:10:16;;;;;;;26.73;19.85;;;19.00;91.50;;;;;;4901342;29;20048;-93
2022/03/25 13:12:45;;;;;;;26.60;17.42;;;20.10;91.30;;;;;;4917907;29;20254;-92
2022/03/25 13:15:14;;;;;;;28.52;17.98;;;19.70;90.70;;;;;;4920577;29;20063;-91
2022/03/25 13:17:44;;;;;;;29.67;19.13;;;18.70;90.40;;;;;;4901379;29;20044;-94
2022/03/25 13:20:19;;;;;;;28.80;18.80;;;18.80;90.10;;;;;;4899550;29;20179;-92
2022/03/25 13:23:25;;;;;;;30.35;16.95;;;19.10;87.40;;;;;;4900155;29;20074;-95
2022/03/25 13:27:15;;;;;;;28.50;18.13;;;18.90;87.90;;;;;;4880493;29;20052;-93
2022/03/25 13:29:54;;;;;;;27.90;18.38;;;18.90;86.90;;;;;;4898142;29;20052;-93
2022/03/25 13:32:44;;;;;;;29.08;18.23;;;18.80;86.50;;;;;;4917121;29;20048;-95
2022/03/25 13:38:21;;;;;;;25.60;16.42;;;18.90;84.40;;;;;;4900310;29;20164;-92
2022/03/25 13:40:49;;;;;;;29.38;18.30;;;18.80;87.50;;;;;;4899592;29;21279;-91
2022/03/25 13:43:33;;;;;;;29.67;18.63;;;19.60;88.50;;;;;;4899610;29;20051;-92
2022/03/25 13:46:01;;;;;;;31.52;19.38;;;19.50;87.90;;;;;;4910996;23;20066;-92
2022/03/25 13:49:33;;;;;;;29.45;19.40;;;17.80;86.90;;;;;;4917502;29;20052;-92
2022/03/25 13:52:07;;;;;;;26.30;15.85;;;19.00;85.70;;;;;;4937388;23;20059;-91
2022/03/25 13:54:33;;;;;;;25.63;15.88;;;18.90;84.30;;;;;;4971736;23;20062;-91
2022/03/25 13:57:04;;;;;;;25.98;15.27;;;19.40;86.00;;;;;;4933251;23;20051;-91
2022/03/25 13:59:35;;;;;;;26.35;16.35;;;19.80;85.40;;;;;;4914000;29;20059;-93
2022/03/25 14:02:03;;;;;;;25.55;16.20;;;18.50;85.30;;;;;;4926693;23;20067;-90
2022/03/25 14:04:31;;;;;;;25.73;15.35;;;18.80;85.50;;;;;;4928556;23;20094;-92
2022/03/25 14:07:24;;;;;;;24.30;14.32;;;19.20;86.00;;;;;;4925184;29;20051;-92
2022/03/25 14:09:55;;;;;;;26.33;13.32;;;18.00;84.10;;;;;;4925488;29;20053;-92
2022/03/25 14:12:23;;;;;;;24.02;13.88;;;19.60;83.50;;;;;;4925325;29;20131;-91
2022/03/25 14:15:18;;;;;;;22.75;13.05;;;20.10;84.20;;;;;;4912039;29;20040;-91
2022/03/25 14:17:51;;;;;;;23.40;13.10;;;19.00;80.30;;;;;;4930144;29;20044;-94
2022/03/25 14:23:23;;;;;;;23.70;11.70;;;18.70;82.00;;;;;;4911156;29;20052;-90
2022/03/25 14:25:51;;;;;;;18.92;10.52;;;19.90;83.20;;;;;;4924621;29;20122;-90
2022/03/25 14:28:35;;;;;;;18.52;9.32;;;20.20;82.90;;;;;;4924549;29;20499;-95
2022/03/25 14:31:16;;;;;;;20.52;9.88;;;19.40;79.50;;;;;;4916129;29;20396;-94
2022/03/25 14:33:51;;;;;;;22.00;10.43;;;19.50;78.10;;;;;;4922663;23;20109;-92
2022/03/25 14:37:24;;;;;;;19.67;10.45;;;19.70;79.80;;;;;;4914640;29;20048;-91
2022/03/25 14:39:53;;;;;;;20.02;9.77;;;19.60;78.40;;;;;;4916887;29;20091;-89
2022/03/25 14:42:25;;;;;;;17.27;8.80;;;20.40;77.00;;;;;;4916702;29;20071;-92
2022/03/25 14:45:29;;;;;;;17.48;6.20;;;18.70;76.00;;;;;;4898779;29;20047;-90
2022/03/25 14:48:14;;;;;;;;;;;19.60;74.10;;;;;;4921613;23;20055;-89
2022/03/25 14:50:40;;;;;;;17.05;4.80;;;19.60;75.00;;;;;;4898943;29;20283;-88
2022/03/25 14:53:31;;;;;;;17.60;6.72;;;20.10;75.60;;;;;;4916298;29;20044;-88
2022/03/25 14:56:02;;;;;;;16.38;7.57;;;19.30;71.90;;;;;;4898095;29;20047;-88
2022/03/25 14:58:31;;;;;;;18.40;7.03;;;19.00;73.70;;;;;;4896790;29;20058;-88
2022/03/25 15:01:03;;;;;;;16.08;6.38;;;20.20;73.90;;;;;;4899174;29;20058;-88
2022/03/25 15:03:37;;;;;;;17.35;7.90;;;19.70;72.20;;;;;;4913720;29;20051;-88
2022/03/25 15:06:06;;;;;;;14.93;5.50;;;20.00;71.20;;;;;;4914618;29;20085;-88
2022/03/25 15:08:38;;;;;;;15.93;7.53;;;18.40;70.50;;;;;;4898862;29;20052;-88
2022/03/25 15:11:10;;;;;;;17.17;8.13;;;18.90;71.40;;;;;;4898310;29;20127;-88
2022/03/25 15:13:39;;;;;;;16.15;7.93;;;19.30;70.90;;;;;;4915997;29;20423;-88
2022/03/25 15:16:13;;;;;;;18.70;8.30;;;19.10;71.60;;;;;;4896515;29;20071;-88
2022/03/25 15:18:42;;;;;;;;;;;19.20;71.10;;;;;;4915781;29;20488;-88
2022/03/25 15:21:12;;;;;;;21.10;9.25;;;18.90;69.10;;;;;;4898706;29;20046;-88
2022/03/25 15:23:38;;;;;;;17.63;7.97;;;19.60;72.50;;;;;;4916884;29;20073;-90
2022/03/25 15:26:09;;;;;;;17.73;9.30;;;18.30;70.40;;;;;;4915901;29;20461;-91
2022/03/25 15:28:52;;;;;;;18.55;10.57;;;20.20;70.00;;;;;;4900896;29;20135;-95
2022/03/25 15:34:36;;;;;;;22.55;10.35;;;20.00;70.40;;;;;;5241560;23;20110;-91
2022/03/25 15:37:02;;;;;;;18.88;11.23;;;18.80;69.80;;;;;;4905122;29;20052;-90
2022/03/25 15:42:18;;;;;;;20.73;11.43;;;18.50;69.20;;;;;;4927660;23;20063;-91
2022/03/25 15:44:44;;;;;;;20.42;11.38;;;18.90;69.70;;;;;;4921228;29;20036;-90
2022/03/25 15:47:10;;;;;;;22.15;12.25;;;18.90;70.00;;;;;;4937557;29;20063;-89
2022/03/25 15:49:45;;;;;;;23.92;12.27;;;18.80;70.00;;;;;;4937843;29;20486;-90
2022/03/25 15:52:11;;;;;;;25.73;13.57;;;18.80;70.10;;;;;;4938380;29;20054;-89
2022/03/25 15:54:37;;;;;;;21.48;13.52;;;18.80;70.40;;;;;;4920376;29;20040;-90
2022/03/25 15:57:07;;;;;;;21.17;13.05;;;18.80;70.40;;;;;;4921437;29;20083;-90
2022/03/25 15:59:32;;;;;;;25.23;14.40;;;18.80;70.80;;;;;;4937944;29;20091;-89
2022/03/25 16:01:58;;;;;;;23.67;14.38;;;18.70;71.00;;;;;;4923177;29;20051;-90
2022/03/25 16:04:39;;;;;;;24.73;15.70;;;18.70;71.70;;;;;;4937845;29;20044;-89
2022/03/25 16:07:43;;;;;;;26.30;16.50;;;18.70;72.60;;;;;;4921099;29;20046;-88
2022/03/25 16:10:09;;;;;;;31.75;18.60;;;18.20;73.40;;;;;;4925152;29;20495;-88
2022/03/25 16:12:49;;;;;;;27.30;17.45;;;17.60;73.70;;;;;;4922439;29;20050;-88
2022/03/25 16:15:15;;;;;;;30.48;18.92;;;17.00;75.40;;;;;;4919831;29;20551;-88
2022/03/25 16:17:51;;;;;;;34.63;21.25;;;18.00;76.10;;;;;;4939163;29;20127;-89
2022/03/25 16:20:21;;;;;;;30.92;19.70;;;16.80;77.20;;;;;;4946311;29;20056;-91
2022/03/25 16:22:46;;;;;;;31.70;19.25;;;16.20;77.30;;;;;;4922201;29;20048;-90
2022/03/25 16:25:28;;;;;;;32.65;21.45;;;16.30;78.00;;;;;;4920870;29;20047;-89
2022/03/25 16:27:55;;;;;;;30.33;19.45;;;16.20;79.80;;;;;;4920959;29;20079;-90
2022/03/25 16:30:34;;;;;;;32.10;19.73;;;16.10;79.20;;;;;;4945973;29;20131;-90
2022/03/25 16:33:09;;;;;;;30.25;19.67;;;15.80;80.50;;;;;;4928710;29;20448;-89
2022/03/25 16:35:34;;;;;;;32.05;19.30;;;15.70;81.00;;;;;;4936575;29;20484;-93
2022/03/25 16:38:09;;;;;;;34.30;19.90;;;15.40;80.40;;;;;;4920940;29;20050;-85
2022/03/25 16:40:34;;;;;;;32.30;18.92;;;15.60;81.80;;;;;;4920219;29;20091;-86
2022/03/25 16:43:26;;;;;;;30.83;18.17;;;15.70;81.30;;;;;;4935477;29;20055;-91
2022/03/25 16:46:05;;;;;;;32.97;20.67;;;15.60;82.60;;;;;;4936909;29;20126;-88
2022/03/25 16:48:34;;;;;;;30.75;18.42;;;15.60;81.70;;;;;;4919743;29;20039;-89
2022/03/25 16:50:59;;;;;;;34.38;19.15;;;16.30;82.50;;;;;;4920160;29;20459;-89
2022/03/25 16:53:25;;;;;;;29.15;17.80;;;15.30;82.30;;;;;;4920713;29;20044;-89
2022/03/25 16:55:57;;;;;;;29.70;18.13;;;15.80;82.70;;;;;;4920889;29;20040;-88
2022/03/25 16:58:23;;;;;;;29.15;17.98;;;14.90;82.70;;;;;;4919836;29;20048;-88
2022/03/25 17:00:48;;;;;;;29.58;17.13;;;15.00;82.80;;;;;;4920702;29;20055;-89